sensor_id;sensor_type;location;lat;lon;timestamp;pressure;altitude;pressure_sealevel;temperature
24639;BMP180;1641;51.306;12.384;2023-10-08T00:00:44;100325.00;;;20.60
24639;BMP180;1641;51.306;12.384;2023-10-08T00:03:15;100325.00;;;20.40
24639;BMP180;1641;51.306;12.384;2023-10-08T00:05:43;100316.00;;;20.20
24639;BMP180;1641;51.306;12.384;2023-10-08T00:08:09;100332.00;;;20.10
24639;BMP180;1641;51.306;12.384;2023-10-08T00:10:40;100341.00;;;20.10
24639;BMP180;1641;51.306;12.384;2023-10-08T00:13:10;100338.00;;;20.20
24639;BMP180;1641;51.306;12.384;2023-10-08T00:15:36;100312.00;;;20.40
24639;BMP180;1641;51.306;12.384;2023-10-08T00:18:05;100326.00;;;20.60
24639;BMP180;1641;51.306;12.384;2023-10-08T00:20:37;100323.00;;;20.40
24639;BMP180;1641;51.306;12.384;2023-10-08T00:23:20;100325.00;;;20.40
24639;BMP180;1641;51.306;12.384;2023-10-08T00:25:45;100335.00;;;20.30
24639;BMP180;1641;51.306;12.384;2023-10-08T00:28:12;100305.00;;;20.10
24639;BMP180;1641;51.306;12.384;2023-10-08T00:30:41;100338.00;;;20.00
24639;BMP180;1641;51.306;12.384;2023-10-08T00:33:08;100338.00;;;20.10
24639;BMP180;1641;51.306;12.384;2023-10-08T00:35:41;100336.00;;;20.00
24639;BMP180;1641;51.306;12.384;2023-10-08T00:38:09;100345.00;;;20.00
24639;BMP180;1641;51.306;12.384;2023-10-08T00:40:45;100342.00;;;20.20
24639;BMP180;1641;51.306;12.384;2023-10-08T00:43:33;100354.00;;;20.70
24639;BMP180;1641;51.306;12.384;2023-10-08T00:46:01;100345.00;;;20.40
24639;BMP180;1641;51.306;12.384;2023-10-08T00:48:27;100346.00;;;20.40
24639;BMP180;1641;51.306;12.384;2023-10-08T00:50:56;100344.00;;;20.20
24639;BMP180;1641;51.306;12.384;2023-10-08T00:53:34;100337.00;;;20.50
24639;BMP180;1641;51.306;12.384;2023-10-08T00:56:04;100351.00;;;20.40
24639;BMP180;1641;51.306;12.384;2023-10-08T00:58:37;100348.00;;;20.00
24639;BMP180;1641;51.306;12.384;2023-10-08T01:01:02;100346.00;;;20.10
24639;BMP180;1641;51.306;12.384;2023-10-08T01:03:28;100354.00;;;19.90
24639;BMP180;1641;51.306;12.384;2023-10-08T01:05:54;100343.00;;;19.90
24639;BMP180;1641;51.306;12.384;2023-10-08T01:08:22;100345.00;;;19.90
24639;BMP180;1641;51.306;12.384;2023-10-08T01:11:19;100337.00;;;20.10
24639;BMP180;1641;51.306;12.384;2023-10-08T01:14:05;100356.00;;;19.90
24639;BMP180;1641;51.306;12.384;2023-10-08T01:16:32;100366.00;;;20.20
24639;BMP180;1641;51.306;12.384;2023-10-08T01:18:59;100343.00;;;20.00
24639;BMP180;1641;51.306;12.384;2023-10-08T01:21:28;100368.00;;;20.30
24639;BMP180;1641;51.306;12.384;2023-10-08T01:24:00;100383.00;;;19.90
24639;BMP180;1641;51.306;12.384;2023-10-08T01:26:27;100379.00;;;19.90
24639;BMP180;1641;51.306;12.384;2023-10-08T01:28:57;100389.00;;;19.70
24639;BMP180;1641;51.306;12.384;2023-10-08T01:31:22;100401.00;;;18.70
24639;BMP180;1641;51.306;12.384;2023-10-08T01:33:47;100406.00;;;18.50
24639;BMP180;1641;51.306;12.384;2023-10-08T01:36:15;100412.00;;;18.40
24639;BMP180;1641;51.306;12.384;2023-10-08T01:38:41;100402.00;;;18.30
24639;BMP180;1641;51.306;12.384;2023-10-08T01:41:13;100403.00;;;18.00
24639;BMP180;1641;51.306;12.384;2023-10-08T01:43:45;100392.00;;;17.40
24639;BMP180;1641;51.306;12.384;2023-10-08T01:46:11;100407.00;;;17.40
24639;BMP180;1641;51.306;12.384;2023-10-08T01:48:38;100401.00;;;16.90
24639;BMP180;1641;51.306;12.384;2023-10-08T01:51:04;100420.00;;;16.90
24639;BMP180;1641;51.306;12.384;2023-10-08T01:53:36;100432.00;;;16.70
24639;BMP180;1641;51.306;12.384;2023-10-08T01:56:01;100433.00;;;16.50
24639;BMP180;1641;51.306;12.384;2023-10-08T01:58:29;100437.00;;;16.30
24639;BMP180;1641;51.306;12.384;2023-10-08T02:00:54;100465.00;;;16.10
24639;BMP180;1641;51.306;12.384;2023-10-08T02:03:24;100478.00;;;15.80
24639;BMP180;1641;51.306;12.384;2023-10-08T02:05:49;100475.00;;;15.60
24639;BMP180;1641;51.306;12.384;2023-10-08T02:08:19;100499.00;;;15.50
24639;BMP180;1641;51.306;12.384;2023-10-08T02:10:44;100513.00;;;15.50
24639;BMP180;1641;51.306;12.384;2023-10-08T02:13:13;100501.00;;;15.30
24639;BMP180;1641;51.306;12.384;2023-10-08T02:15:50;100513.00;;;15.60
24639;BMP180;1641;51.306;12.384;2023-10-08T02:18:17;100513.00;;;15.50
24639;BMP180;1641;51.306;12.384;2023-10-08T02:20:43;100516.00;;;15.40
24639;BMP180;1641;51.306;12.384;2023-10-08T02:23:08;100538.00;;;15.10
24639;BMP180;1641;51.306;12.384;2023-10-08T02:25:37;100543.00;;;14.90
24639;BMP180;1641;51.306;12.384;2023-10-08T02:28:03;100535.00;;;14.70
24639;BMP180;1641;51.306;12.384;2023-10-08T02:30:29;100549.00;;;14.70
24639;BMP180;1641;51.306;12.384;2023-10-08T02:32:54;100545.00;;;14.40
24639;BMP180;1641;51.306;12.384;2023-10-08T02:35:19;100566.00;;;14.40
24639;BMP180;1641;51.306;12.384;2023-10-08T02:37:44;100579.00;;;14.40
24639;BMP180;1641;51.306;12.384;2023-10-08T02:40:11;100587.00;;;14.40
24639;BMP180;1641;51.306;12.384;2023-10-08T02:42:57;100593.00;;;14.50
24639;BMP180;1641;51.306;12.384;2023-10-08T02:45:27;100580.00;;;14.60
24639;BMP180;1641;51.306;12.384;2023-10-08T02:47:56;100574.00;;;14.70
24639;BMP180;1641;51.306;12.384;2023-10-08T02:50:22;100577.00;;;14.50
24639;BMP180;1641;51.306;12.384;2023-10-08T02:52:51;100604.00;;;14.40
24639;BMP180;1641;51.306;12.384;2023-10-08T02:55:17;100582.00;;;14.40
24639;BMP180;1641;51.306;12.384;2023-10-08T02:58:01;100602.00;;;14.30
24639;BMP180;1641;51.306;12.384;2023-10-08T03:00:30;100630.00;;;14.40
24639;BMP180;1641;51.306;12.384;2023-10-08T03:02:58;100629.00;;;14.20
24639;BMP180;1641;51.306;12.384;2023-10-08T03:05:27;100613.00;;;14.10
24639;BMP180;1641;51.306;12.384;2023-10-08T03:07:56;100649.00;;;14.20
24639;BMP180;1641;51.306;12.384;2023-10-08T03:10:23;100639.00;;;14.40
24639;BMP180;1641;51.306;12.384;2023-10-08T03:12:57;100641.00;;;14.20
24639;BMP180;1641;51.306;12.384;2023-10-08T03:15:26;100640.00;;;14.20
24639;BMP180;1641;51.306;12.384;2023-10-08T03:17:59;100643.00;;;14.20
24639;BMP180;1641;51.306;12.384;2023-10-08T03:20:34;100655.00;;;14.50
24639;BMP180;1641;51.306;12.384;2023-10-08T03:23:14;100649.00;;;14.10
24639;BMP180;1641;51.306;12.384;2023-10-08T03:25:54;100650.00;;;13.90
24639;BMP180;1641;51.306;12.384;2023-10-08T03:28:27;100668.00;;;14.00
24639;BMP180;1641;51.306;12.384;2023-10-08T03:30:59;100659.00;;;13.80
24639;BMP180;1641;51.306;12.384;2023-10-08T03:33:35;100656.00;;;14.00
24639;BMP180;1641;51.306;12.384;2023-10-08T03:36:06;100649.00;;;14.10
24639;BMP180;1641;51.306;12.384;2023-10-08T03:38:52;100653.00;;;13.60
24639;BMP180;1641;51.306;12.384;2023-10-08T03:41:26;100670.00;;;13.70
24639;BMP180;1641;51.306;12.384;2023-10-08T03:43:55;100677.00;;;13.80
24639;BMP180;1641;51.306;12.384;2023-10-08T03:46:31;100670.00;;;13.80
24639;BMP180;1641;51.306;12.384;2023-10-08T03:48:57;100663.00;;;13.60
24639;BMP180;1641;51.306;12.384;2023-10-08T03:51:23;100681.00;;;13.60
24639;BMP180;1641;51.306;12.384;2023-10-08T03:53:52;100686.00;;;13.90
24639;BMP180;1641;51.306;12.384;2023-10-08T03:56:27;100671.00;;;13.90
24639;BMP180;1641;51.306;12.384;2023-10-08T03:58:57;100653.00;;;14.30
24639;BMP180;1641;51.306;12.384;2023-10-08T04:01:26;100658.00;;;14.10
24639;BMP180;1641;51.306;12.384;2023-10-08T04:03:55;100665.00;;;13.90
24639;BMP180;1641;51.306;12.384;2023-10-08T04:06:28;100664.00;;;13.90
24639;BMP180;1641;51.306;12.384;2023-10-08T04:09:00;100667.00;;;14.00
24639;BMP180;1641;51.306;12.384;2023-10-08T04:11:35;100661.00;;;13.80
24639;BMP180;1641;51.306;12.384;2023-10-08T04:14:23;100669.00;;;13.80
24639;BMP180;1641;51.306;12.384;2023-10-08T04:16:48;100679.00;;;13.60
24639;BMP180;1641;51.306;12.384;2023-10-08T04:19:21;100667.00;;;13.90
24639;BMP180;1641;51.306;12.384;2023-10-08T04:21:52;100682.00;;;14.10
24639;BMP180;1641;51.306;12.384;2023-10-08T04:24:22;100695.00;;;14.00
24639;BMP180;1641;51.306;12.384;2023-10-08T04:26:54;100687.00;;;13.90
24639;BMP180;1641;51.306;12.384;2023-10-08T04:29:21;100722.00;;;13.80
24639;BMP180;1641;51.306;12.384;2023-10-08T04:31:48;100729.00;;;13.90
24639;BMP180;1641;51.306;12.384;2023-10-08T04:34:19;100745.00;;;13.70
24639;BMP180;1641;51.306;12.384;2023-10-08T04:36:48;100754.00;;;13.60
24639;BMP180;1641;51.306;12.384;2023-10-08T04:39:19;100753.00;;;13.60
24639;BMP180;1641;51.306;12.384;2023-10-08T04:41:51;100734.00;;;13.30
24639;BMP180;1641;51.306;12.384;2023-10-08T04:44:19;100730.00;;;13.50
24639;BMP180;1641;51.306;12.384;2023-10-08T04:46:47;100719.00;;;13.60
24639;BMP180;1641;51.306;12.384;2023-10-08T04:49:16;100731.00;;;13.70
24639;BMP180;1641;51.306;12.384;2023-10-08T04:52:08;100751.00;;;13.50
24639;BMP180;1641;51.306;12.384;2023-10-08T04:54:40;100755.00;;;13.20
24639;BMP180;1641;51.306;12.384;2023-10-08T04:57:07;100762.00;;;13.30
24639;BMP180;1641;51.306;12.384;2023-10-08T04:59:43;100746.00;;;13.10
24639;BMP180;1641;51.306;12.384;2023-10-08T05:02:08;100747.00;;;13.10
24639;BMP180;1641;51.306;12.384;2023-10-08T05:05:09;100761.00;;;12.90
24639;BMP180;1641;51.306;12.384;2023-10-08T05:07:34;100764.00;;;12.90
24639;BMP180;1641;51.306;12.384;2023-10-08T05:10:09;100763.00;;;13.10
24639;BMP180;1641;51.306;12.384;2023-10-08T05:12:38;100765.00;;;12.90
24639;BMP180;1641;51.306;12.384;2023-10-08T05:15:11;100761.00;;;12.90
24639;BMP180;1641;51.306;12.384;2023-10-08T05:17:43;100749.00;;;12.80
24639;BMP180;1641;51.306;12.384;2023-10-08T05:20:19;100781.00;;;12.90
24639;BMP180;1641;51.306;12.384;2023-10-08T05:22:58;100787.00;;;12.90
24639;BMP180;1641;51.306;12.384;2023-10-08T05:25:43;100775.00;;;12.90
24639;BMP180;1641;51.306;12.384;2023-10-08T05:28:41;100791.00;;;13.00
24639;BMP180;1641;51.306;12.384;2023-10-08T05:31:29;100789.00;;;13.40
24639;BMP180;1641;51.306;12.384;2023-10-08T05:34:07;100802.00;;;13.50
24639;BMP180;1641;51.306;12.384;2023-10-08T05:37:04;100811.00;;;13.80
24639;BMP180;1641;51.306;12.384;2023-10-08T05:39:30;100820.00;;;13.80
24639;BMP180;1641;51.306;12.384;2023-10-08T05:42:08;100830.00;;;13.60
24639;BMP180;1641;51.306;12.384;2023-10-08T05:44:57;100857.00;;;13.30
24639;BMP180;1641;51.306;12.384;2023-10-08T05:47:34;100856.00;;;13.10
24639;BMP180;1641;51.306;12.384;2023-10-08T05:50:00;100852.00;;;12.90
24639;BMP180;1641;51.306;12.384;2023-10-08T05:52:54;100837.00;;;13.00
24639;BMP180;1641;51.306;12.384;2023-10-08T05:55:28;100831.00;;;13.00
24639;BMP180;1641;51.306;12.384;2023-10-08T05:58:03;100844.00;;;12.80
24639;BMP180;1641;51.306;12.384;2023-10-08T06:00:46;100839.00;;;13.10
24639;BMP180;1641;51.306;12.384;2023-10-08T06:03:32;100855.00;;;13.00
24639;BMP180;1641;51.306;12.384;2023-10-08T06:06:07;100877.00;;;12.90
24639;BMP180;1641;51.306;12.384;2023-10-08T06:08:39;100875.00;;;12.60
24639;BMP180;1641;51.306;12.384;2023-10-08T06:11:37;100844.00;;;12.40
24639;BMP180;1641;51.306;12.384;2023-10-08T06:14:12;100862.00;;;12.60
24639;BMP180;1641;51.306;12.384;2023-10-08T06:17:03;100873.00;;;12.70
24639;BMP180;1641;51.306;12.384;2023-10-08T06:19:47;100884.00;;;12.90
24639;BMP180;1641;51.306;12.384;2023-10-08T06:22:14;100887.00;;;13.10
24639;BMP180;1641;51.306;12.384;2023-10-08T06:24:39;100900.00;;;13.30
24639;BMP180;1641;51.306;12.384;2023-10-08T06:27:06;100904.00;;;13.30
24639;BMP180;1641;51.306;12.384;2023-10-08T06:29:32;100854.00;;;13.30
24639;BMP180;1641;51.306;12.384;2023-10-08T06:31:58;100896.00;;;13.40
24639;BMP180;1641;51.306;12.384;2023-10-08T06:34:30;100905.00;;;13.40
24639;BMP180;1641;51.306;12.384;2023-10-08T06:37:02;100906.00;;;13.20
24639;BMP180;1641;51.306;12.384;2023-10-08T06:39:29;100917.00;;;13.20
24639;BMP180;1641;51.306;12.384;2023-10-08T06:42:13;100912.00;;;13.40
24639;BMP180;1641;51.306;12.384;2023-10-08T06:44:41;100920.00;;;13.10
24639;BMP180;1641;51.306;12.384;2023-10-08T06:47:12;100917.00;;;13.10
24639;BMP180;1641;51.306;12.384;2023-10-08T06:49:41;100915.00;;;13.20
24639;BMP180;1641;51.306;12.384;2023-10-08T06:52:06;100918.00;;;13.20
24639;BMP180;1641;51.306;12.384;2023-10-08T06:54:36;100921.00;;;13.20
24639;BMP180;1641;51.306;12.384;2023-10-08T06:57:05;100936.00;;;13.20
24639;BMP180;1641;51.306;12.384;2023-10-08T06:59:38;100951.00;;;13.00
24639;BMP180;1641;51.306;12.384;2023-10-08T07:02:07;100949.00;;;12.90
24639;BMP180;1641;51.306;12.384;2023-10-08T07:04:41;100960.00;;;13.10
24639;BMP180;1641;51.306;12.384;2023-10-08T07:07:08;100966.00;;;12.90
24639;BMP180;1641;51.306;12.384;2023-10-08T07:09:34;100984.00;;;12.60
24639;BMP180;1641;51.306;12.384;2023-10-08T07:12:01;100985.00;;;12.70
24639;BMP180;1641;51.306;12.384;2023-10-08T07:14:39;100965.00;;;12.50
24639;BMP180;1641;51.306;12.384;2023-10-08T07:17:06;100987.00;;;12.50
24639;BMP180;1641;51.306;12.384;2023-10-08T07:19:42;100951.00;;;12.60
24639;BMP180;1641;51.306;12.384;2023-10-08T07:22:12;100980.00;;;12.30
24639;BMP180;1641;51.306;12.384;2023-10-08T07:24:47;100955.00;;;12.40
24639;BMP180;1641;51.306;12.384;2023-10-08T07:27:19;100989.00;;;12.50
24639;BMP180;1641;51.306;12.384;2023-10-08T07:29:49;100997.00;;;12.60
24639;BMP180;1641;51.306;12.384;2023-10-08T07:32:18;100998.00;;;12.60
24639;BMP180;1641;51.306;12.384;2023-10-08T07:34:50;100990.00;;;12.70
24639;BMP180;1641;51.306;12.384;2023-10-08T07:37:25;100991.00;;;12.80
24639;BMP180;1641;51.306;12.384;2023-10-08T07:39:51;101024.00;;;12.80
24639;BMP180;1641;51.306;12.384;2023-10-08T07:42:19;101038.00;;;12.80
24639;BMP180;1641;51.306;12.384;2023-10-08T07:44:46;101019.00;;;12.50
24639;BMP180;1641;51.306;12.384;2023-10-08T07:47:12;101059.00;;;12.70
24639;BMP180;1641;51.306;12.384;2023-10-08T07:49:39;101052.00;;;12.70
24639;BMP180;1641;51.306;12.384;2023-10-08T07:52:08;101061.00;;;12.60
24639;BMP180;1641;51.306;12.384;2023-10-08T07:54:34;101053.00;;;12.50
24639;BMP180;1641;51.306;12.384;2023-10-08T07:57:00;101044.00;;;12.50
24639;BMP180;1641;51.306;12.384;2023-10-08T07:59:40;101025.00;;;12.60
24639;BMP180;1641;51.306;12.384;2023-10-08T08:02:21;101045.00;;;12.60
24639;BMP180;1641;51.306;12.384;2023-10-08T08:04:52;101068.00;;;12.30
24639;BMP180;1641;51.306;12.384;2023-10-08T08:07:21;101068.00;;;12.30
24639;BMP180;1641;51.306;12.384;2023-10-08T08:09:51;101041.00;;;12.30
24639;BMP180;1641;51.306;12.384;2023-10-08T08:12:21;101047.00;;;12.80
24639;BMP180;1641;51.306;12.384;2023-10-08T08:14:50;101060.00;;;12.80
24639;BMP180;1641;51.306;12.384;2023-10-08T08:17:17;101079.00;;;12.80
24639;BMP180;1641;51.306;12.384;2023-10-08T08:19:44;101091.00;;;12.80
24639;BMP180;1641;51.306;12.384;2023-10-08T08:22:13;101095.00;;;12.60
24639;BMP180;1641;51.306;12.384;2023-10-08T08:24:53;101096.00;;;12.80
24639;BMP180;1641;51.306;12.384;2023-10-08T08:27:20;101091.00;;;13.00
24639;BMP180;1641;51.306;12.384;2023-10-08T08:30:00;101112.00;;;12.80
24639;BMP180;1641;51.306;12.384;2023-10-08T08:32:36;101103.00;;;12.70
24639;BMP180;1641;51.306;12.384;2023-10-08T08:35:07;101083.00;;;13.10
24639;BMP180;1641;51.306;12.384;2023-10-08T08:37:36;101100.00;;;12.70
24639;BMP180;1641;51.306;12.384;2023-10-08T08:40:04;101089.00;;;13.20
24639;BMP180;1641;51.306;12.384;2023-10-08T08:42:49;101109.00;;;12.90
24639;BMP180;1641;51.306;12.384;2023-10-08T08:45:22;101112.00;;;13.00
24639;BMP180;1641;51.306;12.384;2023-10-08T08:47:49;101103.00;;;13.50
24639;BMP180;1641;51.306;12.384;2023-10-08T08:50:16;101059.00;;;13.30
24639;BMP180;1641;51.306;12.384;2023-10-08T08:52:42;101116.00;;;13.00
24639;BMP180;1641;51.306;12.384;2023-10-08T08:55:09;101126.00;;;13.00
24639;BMP180;1641;51.306;12.384;2023-10-08T08:57:46;101120.00;;;13.30
24639;BMP180;1641;51.306;12.384;2023-10-08T09:00:13;101125.00;;;13.30
24639;BMP180;1641;51.306;12.384;2023-10-08T09:02:39;101134.00;;;13.60
24639;BMP180;1641;51.306;12.384;2023-10-08T09:05:05;101113.00;;;13.70
24639;BMP180;1641;51.306;12.384;2023-10-08T09:07:53;101124.00;;;13.50
24639;BMP180;1641;51.306;12.384;2023-10-08T09:10:20;101131.00;;;13.70
24639;BMP180;1641;51.306;12.384;2023-10-08T09:12:51;101142.00;;;13.70
24639;BMP180;1641;51.306;12.384;2023-10-08T09:15:17;101147.00;;;13.90
24639;BMP180;1641;51.306;12.384;2023-10-08T09:17:53;101139.00;;;13.90
24639;BMP180;1641;51.306;12.384;2023-10-08T09:20:20;101144.00;;;14.00
24639;BMP180;1641;51.306;12.384;2023-10-08T09:22:46;101149.00;;;14.70
24639;BMP180;1641;51.306;12.384;2023-10-08T09:25:21;101141.00;;;14.90
24639;BMP180;1641;51.306;12.384;2023-10-08T09:27:52;101138.00;;;14.50
24639;BMP180;1641;51.306;12.384;2023-10-08T09:30:20;101140.00;;;14.50
24639;BMP180;1641;51.306;12.384;2023-10-08T09:32:47;101145.00;;;14.30
24639;BMP180;1641;51.306;12.384;2023-10-08T09:35:13;101157.00;;;14.10
24639;BMP180;1641;51.306;12.384;2023-10-08T09:37:38;101158.00;;;14.00
24639;BMP180;1641;51.306;12.384;2023-10-08T09:40:06;101160.00;;;14.10
24639;BMP180;1641;51.306;12.384;2023-10-08T09:42:42;101149.00;;;14.20
24639;BMP180;1641;51.306;12.384;2023-10-08T09:45:08;101161.00;;;14.30
24639;BMP180;1641;51.306;12.384;2023-10-08T09:47:38;101166.00;;;14.30
24639;BMP180;1641;51.306;12.384;2023-10-08T09:50:11;101154.00;;;14.10
24639;BMP180;1641;51.306;12.384;2023-10-08T09:52:49;101171.00;;;14.10
24639;BMP180;1641;51.306;12.384;2023-10-08T09:55:21;101167.00;;;13.80
24639;BMP180;1641;51.306;12.384;2023-10-08T09:57:47;101179.00;;;14.00
24639;BMP180;1641;51.306;12.384;2023-10-08T10:00:13;101188.00;;;14.20
24639;BMP180;1641;51.306;12.384;2023-10-08T10:02:50;101178.00;;;14.40
24639;BMP180;1641;51.306;12.384;2023-10-08T10:05:21;101173.00;;;14.50
24639;BMP180;1641;51.306;12.384;2023-10-08T10:07:50;101199.00;;;14.50
24639;BMP180;1641;51.306;12.384;2023-10-08T10:10:31;101204.00;;;14.90
24639;BMP180;1641;51.306;12.384;2023-10-08T10:13:03;101199.00;;;14.70
24639;BMP180;1641;51.306;12.384;2023-10-08T10:15:33;101206.00;;;14.70
24639;BMP180;1641;51.306;12.384;2023-10-08T10:20:53;101210.00;;;14.70
24639;BMP180;1641;51.306;12.384;2023-10-08T10:23:40;101218.00;;;14.70
24639;BMP180;1641;51.306;12.384;2023-10-08T10:26:27;101220.00;;;14.60
24639;BMP180;1641;51.306;12.384;2023-10-08T10:32:06;101228.00;;;14.50
24639;BMP180;1641;51.306;12.384;2023-10-08T10:34:31;101225.00;;;15.10
24639;BMP180;1641;51.306;12.384;2023-10-08T10:37:00;101222.00;;;15.80
24639;BMP180;1641;51.306;12.384;2023-10-08T10:39:39;101221.00;;;16.40
24639;BMP180;1641;51.306;12.384;2023-10-08T10:42:07;101236.00;;;15.30
24639;BMP180;1641;51.306;12.384;2023-10-08T10:44:45;101233.00;;;15.60
24639;BMP180;1641;51.306;12.384;2023-10-08T10:47:17;101228.00;;;15.20
24639;BMP180;1641;51.306;12.384;2023-10-08T10:49:48;101245.00;;;15.30
24639;BMP180;1641;51.306;12.384;2023-10-08T10:52:36;101250.00;;;15.80
24639;BMP180;1641;51.306;12.384;2023-10-08T10:55:17;101237.00;;;15.90
24639;BMP180;1641;51.306;12.384;2023-10-08T11:00:37;101230.00;;;15.50
24639;BMP180;1641;51.306;12.384;2023-10-08T11:03:05;101241.00;;;15.10
24639;BMP180;1641;51.306;12.384;2023-10-08T11:05:51;101217.00;;;15.00
24639;BMP180;1641;51.306;12.384;2023-10-08T11:08:26;101246.00;;;15.60
24639;BMP180;1641;51.306;12.384;2023-10-08T11:10:59;101238.00;;;15.60
24639;BMP180;1641;51.306;12.384;2023-10-08T11:13:32;101232.00;;;15.80
24639;BMP180;1641;51.306;12.384;2023-10-08T11:16:03;101230.00;;;15.90
24639;BMP180;1641;51.306;12.384;2023-10-08T11:18:28;101242.00;;;15.30
24639;BMP180;1641;51.306;12.384;2023-10-08T11:21:06;101224.00;;;15.90
24639;BMP180;1641;51.306;12.384;2023-10-08T11:23:47;101235.00;;;15.90
24639;BMP180;1641;51.306;12.384;2023-10-08T11:26:18;101240.00;;;16.40
24639;BMP180;1641;51.306;12.384;2023-10-08T11:28:47;101228.00;;;16.30
24639;BMP180;1641;51.306;12.384;2023-10-08T11:31:14;101198.00;;;16.60
24639;BMP180;1641;51.306;12.384;2023-10-08T11:33:47;101214.00;;;17.20
24639;BMP180;1641;51.306;12.384;2023-10-08T11:36:36;101213.00;;;16.90
24639;BMP180;1641;51.306;12.384;2023-10-08T11:39:22;101216.00;;;16.30
24639;BMP180;1641;51.306;12.384;2023-10-08T11:41:57;101212.00;;;16.40
24639;BMP180;1641;51.306;12.384;2023-10-08T11:44:22;101206.00;;;16.50
24639;BMP180;1641;51.306;12.384;2023-10-08T11:46:49;101216.00;;;16.90
24639;BMP180;1641;51.306;12.384;2023-10-08T11:49:18;101198.00;;;17.30
24639;BMP180;1641;51.306;12.384;2023-10-08T11:51:45;101192.00;;;17.20
24639;BMP180;1641;51.306;12.384;2023-10-08T11:54:13;101201.00;;;17.40
24639;BMP180;1641;51.306;12.384;2023-10-08T11:56:39;101192.00;;;17.50
24639;BMP180;1641;51.306;12.384;2023-10-08T11:59:05;101192.00;;;17.40
24639;BMP180;1641;51.306;12.384;2023-10-08T12:01:37;101197.00;;;16.70
24639;BMP180;1641;51.306;12.384;2023-10-08T12:04:07;101187.00;;;16.00
24639;BMP180;1641;51.306;12.384;2023-10-08T12:06:38;101193.00;;;16.50
24639;BMP180;1641;51.306;12.384;2023-10-08T12:09:03;101201.00;;;16.30
24639;BMP180;1641;51.306;12.384;2023-10-08T12:11:36;101215.00;;;15.90
24639;BMP180;1641;51.306;12.384;2023-10-08T12:14:03;101207.00;;;16.50
24639;BMP180;1641;51.306;12.384;2023-10-08T12:16:28;101205.00;;;16.50
24639;BMP180;1641;51.306;12.384;2023-10-08T12:18:57;101195.00;;;16.00
24639;BMP180;1641;51.306;12.384;2023-10-08T12:21:26;101192.00;;;16.40
24639;BMP180;1641;51.306;12.384;2023-10-08T12:23:54;101194.00;;;16.70
24639;BMP180;1641;51.306;12.384;2023-10-08T12:26:20;101191.00;;;16.90
24639;BMP180;1641;51.306;12.384;2023-10-08T12:28:49;101190.00;;;16.90
24639;BMP180;1641;51.306;12.384;2023-10-08T12:31:15;101188.00;;;16.90
24639;BMP180;1641;51.306;12.384;2023-10-08T12:33:41;101195.00;;;16.80
24639;BMP180;1641;51.306;12.384;2023-10-08T12:36:11;101182.00;;;17.10
24639;BMP180;1641;51.306;12.384;2023-10-08T12:38:43;101160.00;;;17.00
24639;BMP180;1641;51.306;12.384;2023-10-08T12:41:10;101175.00;;;17.10
24639;BMP180;1641;51.306;12.384;2023-10-08T12:43:42;101176.00;;;16.60
24639;BMP180;1641;51.306;12.384;2023-10-08T12:46:10;101185.00;;;16.90
24639;BMP180;1641;51.306;12.384;2023-10-08T12:48:44;101188.00;;;16.90
24639;BMP180;1641;51.306;12.384;2023-10-08T12:51:13;101170.00;;;16.70
24639;BMP180;1641;51.306;12.384;2023-10-08T12:53:39;101177.00;;;16.90
24639;BMP180;1641;51.306;12.384;2023-10-08T12:56:07;101157.00;;;17.10
24639;BMP180;1641;51.306;12.384;2023-10-08T12:58:40;101174.00;;;16.70
24639;BMP180;1641;51.306;12.384;2023-10-08T13:01:14;101145.00;;;16.90
24639;BMP180;1641;51.306;12.384;2023-10-08T13:03:43;101164.00;;;17.00
24639;BMP180;1641;51.306;12.384;2023-10-08T13:06:13;101143.00;;;17.10
24639;BMP180;1641;51.306;12.384;2023-10-08T13:08:51;101143.00;;;17.50
24639;BMP180;1641;51.306;12.384;2023-10-08T13:11:21;101159.00;;;17.60
24639;BMP180;1641;51.306;12.384;2023-10-08T13:13:54;101157.00;;;17.70
24639;BMP180;1641;51.306;12.384;2023-10-08T13:16:27;101159.00;;;18.10
24639;BMP180;1641;51.306;12.384;2023-10-08T13:19:02;101157.00;;;17.80
24639;BMP180;1641;51.306;12.384;2023-10-08T13:21:28;101140.00;;;17.60
24639;BMP180;1641;51.306;12.384;2023-10-08T13:23:54;101148.00;;;17.90
24639;BMP180;1641;51.306;12.384;2023-10-08T13:26:22;101122.00;;;18.20
24639;BMP180;1641;51.306;12.384;2023-10-08T13:28:50;101164.00;;;18.20
24639;BMP180;1641;51.306;12.384;2023-10-08T13:31:16;101173.00;;;18.30
24639;BMP180;1641;51.306;12.384;2023-10-08T13:33:44;101156.00;;;18.30
24639;BMP180;1641;51.306;12.384;2023-10-08T13:36:14;101181.00;;;17.80
24639;BMP180;1641;51.306;12.384;2023-10-08T13:38:40;101184.00;;;17.40
24639;BMP180;1641;51.306;12.384;2023-10-08T13:41:11;101184.00;;;17.30
24639;BMP180;1641;51.306;12.384;2023-10-08T13:43:41;101177.00;;;17.40
24639;BMP180;1641;51.306;12.384;2023-10-08T13:46:11;101174.00;;;17.20
24639;BMP180;1641;51.306;12.384;2023-10-08T13:48:41;101169.00;;;17.00
24639;BMP180;1641;51.306;12.384;2023-10-08T13:51:08;101166.00;;;16.70
24639;BMP180;1641;51.306;12.384;2023-10-08T13:53:40;101164.00;;;16.90
24639;BMP180;1641;51.306;12.384;2023-10-08T13:56:06;101147.00;;;16.90
24639;BMP180;1641;51.306;12.384;2023-10-08T13:58:32;101151.00;;;16.60
24639;BMP180;1641;51.306;12.384;2023-10-08T14:01:00;101164.00;;;16.60
24639;BMP180;1641;51.306;12.384;2023-10-08T14:03:29;101159.00;;;16.50
24639;BMP180;1641;51.306;12.384;2023-10-08T14:05:57;101165.00;;;16.60
24639;BMP180;1641;51.306;12.384;2023-10-08T14:08:27;101155.00;;;16.90
24639;BMP180;1641;51.306;12.384;2023-10-08T14:10:54;101167.00;;;17.00
24639;BMP180;1641;51.306;12.384;2023-10-08T14:13:25;101166.00;;;16.90
24639;BMP180;1641;51.306;12.384;2023-10-08T14:15:52;101176.00;;;17.00
24639;BMP180;1641;51.306;12.384;2023-10-08T14:18:22;101180.00;;;17.30
24639;BMP180;1641;51.306;12.384;2023-10-08T14:20:53;101168.00;;;17.10
24639;BMP180;1641;51.306;12.384;2023-10-08T14:23:20;101159.00;;;17.30
24639;BMP180;1641;51.306;12.384;2023-10-08T14:25:48;101155.00;;;17.10
24639;BMP180;1641;51.306;12.384;2023-10-08T14:28:16;101125.00;;;17.10